Blue Bay — V2CE6 — position and weather

sailwx.info

Track history (hours):
 
Tides and Currents Weather Stations Pressure Air Temp Water Temp Dewpoint Dewpoint Depression Visibility Wind Speed Wind Dir Waves Ship Positions

Blue Bay

Last reported at 2017-Jan-21 16:34 UTC. Time now 2017-Jan-21 17:32 UTC.
Position N 57°23' E 011°25'.

Length 89 m; draft 3.2 m.

Type: Cargo ship. MMSI: 304519000.

Date/timePositionNaut miles runAvg speedWind from/ knotsBaromVisibWave heightAir tempDewpointWater temp
2017-Jan-21 16:34N 57°23' E 011°25'1111.4
2017-Jan-21 15:34N 57°33' E 011°13'1211.4
2017-Jan-21 14:32N 57°40' E 010°57'1111.1
2017-Jan-21 13:33N 57°46' E 010°40'1212.2
2017-Jan-21 12:34N 57°44' E 010°18'1211.9
2017-Jan-21 11:33N 57°40' E 009°56'16410.8
2017-Jan-20 20:23N 55°40' E 006°34'1211.2
2017-Jan-20 19:20N 55°30' E 006°22'2011.1
2017-Jan-20 17:34N 55°13' E 006°03'3511.1
2017-Jan-20 14:26N 54°44' E 005°31'2111.3
2017-Jan-20 12:32N 54°26' E 005°11'1311.3
2017-Jan-20 11:21N 54°15' E 004°58'8 9.1
2017-Jan-20 10:25N 54°08' E 004°50'2 1.4
2017-Jan-20 09:13N 54°08' E 004°48'4 5.9
2017-Jan-20 08:33N 54°07' E 004°41'6 5.9
2017-Jan-20 07:32N 54°06' E 004°31'16 7.9
2017-Jan-20 05:28N 54°04' E 004°03'9311.0
2017-Jan-19 21:04N 53°45' E 001°30'610.9
2017-Jan-19 20:30N 53°43' E 001°20'39 0.9
2017-Jan-17 23:06N 53°32' E 000°16'610.3
2017-Jan-17 22:33N 53°33' E 000°06'1111.2
2017-Jan-17 21:33N 53°39' W 000°10'8 7.8
2017-Jan-17 20:34N 53°43' W 000°22'0 0.1
2017-Jan-17 19:26N 53°43' W 000°22'0 0.0
2017-Jan-17 18:32N 53°43' W 000°22'0 0.0
2017-Jan-17 17:32N 53°43' W 000°22'0 0.0
2017-Jan-17 16:32N 53°43' W 000°22'0 0.0
2017-Jan-17 15:32N 53°43' W 000°22'0 0.0
2017-Jan-17 14:32N 53°43' W 000°22'0 0.0
2017-Jan-17 13:32N 53°43' W 000°22'0 0.0
2017-Jan-17 12:32N 53°43' W 000°22'0 0.0
2017-Jan-17 11:32N 53°43' W 000°22'0 0.0
2017-Jan-17 10:32N 53°43' W 000°22'0 0.0
2017-Jan-17 09:29N 53°43' W 000°22'0 0.0
2017-Jan-17 08:32N 53°43' W 000°22'0 0.0
2017-Jan-17 07:32N 53°43' W 000°22'0 0.0
2017-Jan-17 06:32N 53°43' W 000°22'0 0.0
2017-Jan-17 05:32N 53°43' W 000°22'0 0.0
2017-Jan-17 04:32N 53°43' W 000°22'0 0.0
2017-Jan-17 03:32N 53°43' W 000°22'0 0.0
2017-Jan-17 02:32N 53°43' W 000°22'0 0.0
2017-Jan-17 01:32N 53°43' W 000°22'0 0.0
2017-Jan-17 00:32N 53°43' W 000°22'0 0.0
2017-Jan-16 23:32N 53°43' W 000°22'0 0.0
2017-Jan-16 22:32N 53°43' W 000°22'0 0.0
2017-Jan-16 21:29N 53°43' W 000°22'0 0.4
2017-Jan-16 20:33N 53°43' W 000°21'9 9.4
2017-Jan-16 19:33N 53°38' W 000°08'1212.0
2017-Jan-16 18:34N 53°33' E 000°10'127 5.8
2017-Jan-15 20:31N 53°21' E 003°43'8 8.6
2017-Jan-15 19:32N 53°22' E 003°57'9 8.5
2017-Jan-15 18:32N 53°23' E 004°11'9 8.5
2017-Jan-15 17:33N 53°25' E 004°24'10 9.5
2017-Jan-15 16:32N 53°29' E 004°39'1010.5
2017-Jan-15 15:32N 53°33' E 004°55'1210.8
2017-Jan-15 14:27N 53°37' E 005°14'91 9.1
2017-Jan-15 04:31N 54°02' E 007°42'9 9.7
2017-Jan-15 03:33N 54°02' E 007°58'9 9.5
2017-Jan-15 02:33N 54°01' E 008°14'9 9.0
2017-Jan-15 01:33N 53°59' E 008°29'8 7.6
2017-Jan-15 00:33N 53°55' E 008°41'7 6.6
2017-Jan-14 23:33N 53°51' E 008°48'7 7.3
2017-Jan-14 22:33N 53°51' E 009°01'5 5.3
2017-Jan-14 21:34N 53°54' E 009°09'1 0.9
2017-Jan-14 20:33N 53°54' E 009°10'7 7.0
2017-Jan-14 19:33N 53°60' E 009°17'9 8.2
2017-Jan-14 18:29N 54°08' E 009°20'47 5.8
2017-Jan-14 10:28N 54°33' E 010°29'9 9.6
2017-Jan-14 09:33N 54°35' E 010°43'10 9.6
2017-Jan-14 08:33N 54°36' E 010°60'10 9.5
2017-Jan-14 07:33N 54°34' E 011°16'10 9.7
2017-Jan-14 06:33N 54°31' E 011°31'10 9.9
2017-Jan-14 05:33N 54°27' E 011°48'1010.2
2017-Jan-14 04:33N 54°27' E 012°05'9 9.0
2017-Jan-14 03:33N 54°34' E 012°14'38 9.6
2017-Jan-13 23:33N 54°54' E 013°11'20 9.8
2017-Jan-13 21:28N 55°01' E 013°44'8 9.0
2017-Jan-13 20:33N 55°04' E 013°58'10 9.6
2017-Jan-13 19:33N 55°10' E 014°11'1010.0
2017-Jan-13 18:34N 55°17' E 014°23'10 9.9
2017-Jan-13 17:33N 55°25' E 014°34'10 9.8
2017-Jan-13 16:33N 55°30' E 014°49'1010.2
2017-Jan-13 15:33N 55°34' E 015°06'1010.3
2017-Jan-13 14:33N 55°37' E 015°23'  
Track history (hours):
 
Tides and Currents Weather Stations Pressure Air Temp Water Temp Dewpoint Dewpoint Depression Visibility Wind Speed Wind Dir Waves Ship Positions

Blue Bay

Last reported at 2017-Jan-21 16:34 UTC. Time now 2017-Jan-21 17:32 UTC.
Position N 57°23' E 011°25'.

Length 89 m; draft 3.2 m.

Type: Cargo ship. MMSI: 304519000.

Date/timePositionNaut miles runAvg speedWind from/ knotsBaromVisibWave heightAir tempDewpointWater temp
2017-Jan-21 16:34N 57°23' E 011°25'1111.4
2017-Jan-21 15:34N 57°33' E 011°13'1211.4
2017-Jan-21 14:32N 57°40' E 010°57'1111.1
2017-Jan-21 13:33N 57°46' E 010°40'1212.2
2017-Jan-21 12:34N 57°44' E 010°18'1211.9
2017-Jan-21 11:33N 57°40' E 009°56'16410.8
2017-Jan-20 20:23N 55°40' E 006°34'1211.2
2017-Jan-20 19:20N 55°30' E 006°22'2011.1
2017-Jan-20 17:34N 55°13' E 006°03'3511.1
2017-Jan-20 14:26N 54°44' E 005°31'2111.3
2017-Jan-20 12:32N 54°26' E 005°11'1311.3
2017-Jan-20 11:21N 54°15' E 004°58'8 9.1
2017-Jan-20 10:25N 54°08' E 004°50'2 1.4
2017-Jan-20 09:13N 54°08' E 004°48'4 5.9
2017-Jan-20 08:33N 54°07' E 004°41'6 5.9
2017-Jan-20 07:32N 54°06' E 004°31'16 7.9
2017-Jan-20 05:28N 54°04' E 004°03'9311.0
2017-Jan-19 21:04N 53°45' E 001°30'610.9
2017-Jan-19 20:30N 53°43' E 001°20'39 0.9
2017-Jan-17 23:06N 53°32' E 000°16'610.3
2017-Jan-17 22:33N 53°33' E 000°06'1111.2
2017-Jan-17 21:33N 53°39' W 000°10'8 7.8
2017-Jan-17 20:34N 53°43' W 000°22'0 0.1
2017-Jan-17 19:26N 53°43' W 000°22'0 0.0
2017-Jan-17 18:32N 53°43' W 000°22'0 0.0
2017-Jan-17 17:32N 53°43' W 000°22'0 0.0
2017-Jan-17 16:32N 53°43' W 000°22'0 0.0
2017-Jan-17 15:32N 53°43' W 000°22'0 0.0
2017-Jan-17 14:32N 53°43' W 000°22'0 0.0
2017-Jan-17 13:32N 53°43' W 000°22'0 0.0
2017-Jan-17 12:32N 53°43' W 000°22'0 0.0
2017-Jan-17 11:32N 53°43' W 000°22'0 0.0
2017-Jan-17 10:32N 53°43' W 000°22'0 0.0
2017-Jan-17 09:29N 53°43' W 000°22'0 0.0
2017-Jan-17 08:32N 53°43' W 000°22'0 0.0
2017-Jan-17 07:32N 53°43' W 000°22'0 0.0
2017-Jan-17 06:32N 53°43' W 000°22'0 0.0
2017-Jan-17 05:32N 53°43' W 000°22'0 0.0
2017-Jan-17 04:32N 53°43' W 000°22'0 0.0
2017-Jan-17 03:32N 53°43' W 000°22'0 0.0
2017-Jan-17 02:32N 53°43' W 000°22'0 0.0
2017-Jan-17 01:32N 53°43' W 000°22'0 0.0
2017-Jan-17 00:32N 53°43' W 000°22'0 0.0
2017-Jan-16 23:32N 53°43' W 000°22'0 0.0
2017-Jan-16 22:32N 53°43' W 000°22'0 0.0
2017-Jan-16 21:29N 53°43' W 000°22'0 0.4
2017-Jan-16 20:33N 53°43' W 000°21'9 9.4
2017-Jan-16 19:33N 53°38' W 000°08'1212.0
2017-Jan-16 18:34N 53°33' E 000°10'127 5.8
2017-Jan-15 20:31N 53°21' E 003°43'8 8.6
2017-Jan-15 19:32N 53°22' E 003°57'9 8.5
2017-Jan-15 18:32N 53°23' E 004°11'9 8.5
2017-Jan-15 17:33N 53°25' E 004°24'10 9.5
2017-Jan-15 16:32N 53°29' E 004°39'1010.5
2017-Jan-15 15:32N 53°33' E 004°55'1210.8
2017-Jan-15 14:27N 53°37' E 005°14'91 9.1
2017-Jan-15 04:31N 54°02' E 007°42'9 9.7
2017-Jan-15 03:33N 54°02' E 007°58'9 9.5
2017-Jan-15 02:33N 54°01' E 008°14'9 9.0
2017-Jan-15 01:33N 53°59' E 008°29'8 7.6
2017-Jan-15 00:33N 53°55' E 008°41'7 6.6
2017-Jan-14 23:33N 53°51' E 008°48'7 7.3
2017-Jan-14 22:33N 53°51' E 009°01'5 5.3
2017-Jan-14 21:34N 53°54' E 009°09'1 0.9
2017-Jan-14 20:33N 53°54' E 009°10'7 7.0
2017-Jan-14 19:33N 53°60' E 009°17'9 8.2
2017-Jan-14 18:29N 54°08' E 009°20'47 5.8
2017-Jan-14 10:28N 54°33' E 010°29'9 9.6
2017-Jan-14 09:33N 54°35' E 010°43'10 9.6
2017-Jan-14 08:33N 54°36' E 010°60'10 9.5
2017-Jan-14 07:33N 54°34' E 011°16'10 9.7
2017-Jan-14 06:33N 54°31' E 011°31'10 9.9
2017-Jan-14 05:33N 54°27' E 011°48'1010.2
2017-Jan-14 04:33N 54°27' E 012°05'9 9.0
2017-Jan-14 03:33N 54°34' E 012°14'38 9.6
2017-Jan-13 23:33N 54°54' E 013°11'20 9.8
2017-Jan-13 21:28N 55°01' E 013°44'8 9.0
2017-Jan-13 20:33N 55°04' E 013°58'10 9.6
2017-Jan-13 19:33N 55°10' E 014°11'1010.0
2017-Jan-13 18:34N 55°17' E 014°23'10 9.9
2017-Jan-13 17:33N 55°25' E 014°34'10 9.8
2017-Jan-13 16:33N 55°30' E 014°49'1010.2
2017-Jan-13 15:33N 55°34' E 015°06'1010.3
2017-Jan-13 14:33N 55°37' E 015°23'  

Dump ship's entire track history